KAMW/AMW METAR and TAF weather

Enter ICAO airport designator
Station Type Date Time Source
KAMW METAR 2019/12/07 09:53 UTC NOAA

KAMW 070953Z AUTO 17005KT 10SM CLR M04/M06 A3027 RMK AO2 SLP259 T10441061


Station Type Date Time Source
KAMW Decoded METAR 2019/12/07 09:53 UTC NOAA

AMES MUNICIPAL AIRPORT, IA, United States (KAMW) 41-59N 93-37W 279M
Dec 07, 2019 - 04:53 AM EST / 2019.12.07 0953 UTC
Wind: from the S (170 degrees) at 6 MPH (5 KT):0
Visibility: 10 mile(s):0
Sky conditions: clear
Temperature: 24.1 F (-4.4 C)
Windchill: 17 F (-8 C):1
Dew Point: 21.0 F (-6.1 C)
Relative Humidity: 87%
Pressure (altimeter): 30.27 in. Hg (1025 hPa)
ob: KAMW 070953Z AUTO 17005KT 10SM CLR M04/M06 A3027 RMK AO2 SLP259 T10441061
cycle: 10

Station Type Date Time Source
KAMW TAF UTC NOAA

Error!

Example: see airport list